메인 페이지
METAR-TAF:

METAR-TAF

공항 :

베를린 테겔 국제공항

베를린, 독일

위도: 52-34N, 경도: 013-19E, 고도: 37m

현재 날씨관측

예보는 8분 전, 02:50시(UTC)에 발표되었습니다.
12kt
온도 3°C
습도 81%
기압 1020 hPa
시정 10km 이상
고도 4600ft 상공 구름 많음

METAR: EDDT 190250Z 28012KT 9999 BKN046 03/00 Q1020

시각: 03:58 (02:58 UTC)

예보

예보는 3 시간 58분 전, 23:00시(UTC)에 발표되었습니다.
예보 대상 시간: 19일 00시부터 19일 24시까지 (UTC)
11kt
시정 10km 이상
고도 2000ft 상공 구름 많음
전환 중
19일 15시부터 19일 18시까지 (UTC)
5kt

TAF: EDDT 182300Z 1900/1924 27011KT 9999 BKN020 BECMG 1915/1918 27005KT

4,000개 이상의 공항 관측 자료 및 예보 (METAR 및 TAF 보고).

지도상에서 검색 가능한 기상관측소가 노란 점과 빨간 점으로 표시되어 있습니다.

기상관측소 명을 보려면 표시 위로 마우스를 이동하세요.

날씨 관측과 예보를 보려면 클릭하세요.

지도 변경 : 확대하려면 엑스 표시가 있는 녹색 버튼, 축소하려면 빼기 표시가 있는 녹색 버튼, 다음 페이지의 지도를 보려면 녹색 화살표를 클릭하세요.


METAR-TAF: